Time;durP1;ratioP1;P1;durP2;ratioP2;P2;SDS_P1;SDS_P2;PMS_P1;PMS_P2;Temp;Humidity;BMP_temperature;BMP_pressure;BME280_temperature;BME280_humidity;BME280_pressure;Samples;Min_cycle;Max_cycle;Signal;HPM_P1;HPM_P2
2021/12/24 00:01:39;;;;;;;15.98;9.27;;;5.70;99.90;;;;;;5079806;28;20083;-66
2021/12/24 00:04:09;;;;;;;21.05;10.48;;;5.60;99.90;;;;;;5085233;28;20087;-67
2021/12/24 00:06:37;;;;;;;16.88;10.65;;;5.70;99.90;;;;;;5075181;28;20391;-67
2021/12/24 00:09:05;;;;;;;15.45;8.35;;;5.70;99.90;;;;;;5071831;28;20055;-67
2021/12/24 00:11:32;;;;;;;17.33;9.43;;;5.70;99.90;;;;;;5070796;28;20076;-67
2021/12/24 00:13:59;;;;;;;15.68;9.63;;;5.80;99.90;;;;;;5072604;28;20052;-67
2021/12/24 00:16:38;;;;;;;16.60;9.10;;;5.80;99.90;;;;;;5078124;28;20086;-67
2021/12/24 00:19:37;;;;;;;19.52;11.13;;;5.80;99.90;;;;;;5082041;28;20044;-67
2021/12/24 00:35:35;;;;;;;13.50;6.50;;;5.90;99.90;;;;;;5108773;28;20436;-67
2021/12/24 00:38:07;;;;;;;12.23;7.90;;;5.90;99.90;;;;;;5111716;28;20051;-67
2021/12/24 00:40:40;;;;;;;16.67;8.75;;;5.80;99.90;;;;;;5112760;28;20036;-67
2021/12/24 00:43:05;;;;;;;14.57;8.25;;;5.80;99.90;;;;;;5112261;28;20032;-67
2021/12/24 00:45:34;;;;;;;12.88;7.53;;;5.90;99.90;;;;;;5111170;28;20064;-67
2021/12/24 00:48:02;;;;;;;11.63;7.55;;;6.00;99.90;;;;;;5112657;28;20038;-67
2021/12/24 00:50:31;;;;;;;15.65;8.75;;;5.90;99.90;;;;;;5110600;28;20058;-67
2021/12/24 00:53:04;;;;;;;10.77;6.63;;;6.00;99.90;;;;;;5112741;28;20047;-66
2021/12/24 00:55:32;;;;;;;18.60;9.02;;;6.00;99.90;;;;;;5111455;28;20104;-67
2021/12/24 00:58:00;;;;;;;10.88;7.28;;;6.00;99.90;;;;;;5110479;28;20062;-67
2021/12/24 01:00:33;;;;;;;15.32;8.82;;;6.00;99.90;;;;;;5111679;28;20561;-67
2021/12/24 01:03:00;;;;;;;14.55;7.82;;;6.00;99.90;;;;;;5111131;28;20051;-67
2021/12/24 01:05:28;;;;;;;15.73;7.80;;;6.00;99.90;;;;;;5111749;28;20077;-67
2021/12/24 01:07:53;;;;;;;15.43;7.63;;;6.10;99.90;;;;;;5107875;28;20043;-67
2021/12/24 01:10:22;;;;;;;14.95;7.28;;;6.00;99.90;;;;;;5098343;28;20039;-67
2021/12/24 01:12:48;;;;;;;14.60;6.60;;;6.00;99.90;;;;;;5104802;28;20150;-67
2021/12/24 01:15:15;;;;;;;14.38;6.65;;;6.10;99.90;;;;;;5100238;28;20513;-66
2021/12/24 01:18:00;;;;;;;23.55;10.52;;;6.10;99.90;;;;;;5111061;28;20074;-67
2021/12/24 01:20:42;;;;;;;12.77;6.85;;;6.10;99.90;;;;;;5112281;28;20074;-67
2021/12/24 01:28:42;;;;;;;8.98;5.50;;;6.20;99.90;;;;;;5112039;28;20079;-67
2021/12/24 01:39:39;;;;;;;10.35;6.00;;;6.30;99.90;;;;;;5111068;28;20401;-66
2021/12/24 01:44:51;;;;;;;10.80;5.95;;;6.30;99.90;;;;;;5110044;28;20063;-67
2021/12/24 01:47:16;;;;;;;14.52;6.47;;;6.40;99.90;;;;;;5110918;28;20082;-67
2021/12/24 01:49:42;;;;;;;13.35;6.55;;;6.30;99.90;;;;;;5111379;28;20452;-67
2021/12/24 01:52:08;;;;;;;8.70;5.25;;;6.50;99.90;;;;;;5111612;28;20553;-67
2021/12/24 01:54:34;;;;;;;10.88;4.55;;;6.50;99.90;;;;;;5109650;28;20048;-67
2021/12/24 01:57:00;;;;;;;7.32;4.90;;;6.50;99.90;;;;;;5101818;28;20044;-67
2021/12/24 01:59:26;;;;;;;8.77;4.53;;;6.50;99.90;;;;;;5104595;28;20051;-66
2021/12/24 02:01:52;;;;;;;5.32;3.75;;;6.50;99.90;;;;;;5099910;28;20101;-67
2021/12/24 02:04:19;;;;;;;5.18;3.47;;;6.60;99.90;;;;;;5098077;28;20039;-67
2021/12/24 02:06:45;;;;;;;5.90;4.03;;;6.50;99.90;;;;;;5094958;28;20052;-67
2021/12/24 02:09:11;;;;;;;5.15;3.63;;;6.60;99.90;;;;;;5105082;28;20570;-67
2021/12/24 02:11:39;;;;;;;5.00;3.53;;;6.50;99.90;;;;;;5090621;28;20047;-67
2021/12/24 02:14:06;;;;;;;6.72;4.28;;;6.60;99.90;;;;;;5101411;28;20489;-67
2021/12/24 02:16:47;;;;;;;5.82;3.50;;;6.60;99.90;;;;;;5110949;28;20074;-67
2021/12/24 02:29:55;;;;;;;7.15;3.30;;;6.70;99.90;;;;;;5100939;28;20465;-67
2021/12/24 02:32:21;;;;;;;7.25;4.15;;;6.70;99.90;;;;;;5111307;28;20052;-67
2021/12/24 02:34:47;;;;;;;8.05;4.63;;;6.60;99.90;;;;;;5106646;28;20039;-67
2021/12/24 02:37:13;;;;;;;5.18;3.47;;;6.70;99.90;;;;;;5089460;28;20410;-67
2021/12/24 02:39:39;;;;;;;6.07;3.72;;;6.70;99.90;;;;;;5090572;28;20048;-67
2021/12/24 02:42:21;;;;;;;5.20;3.50;;;6.70;99.90;;;;;;5089689;28;20044;-67
2021/12/24 02:44:48;;;;;;;;;;;6.80;99.90;;;;;;5091024;28;20040;-67
2021/12/24 02:47:38;;;;;;;5.47;3.78;;;6.80;99.90;;;;;;5106430;28;19923;-67
2021/12/24 02:55:14;;;;;;;9.05;5.10;;;6.80;99.90;;;;;;5090649;28;20048;-67
2021/12/24 02:57:43;;;;;;;12.20;5.05;;;6.80;99.90;;;;;;5089422;28;20505;-67
2021/12/24 03:00:19;;;;;;;13.75;6.28;;;6.90;99.90;;;;;;5090536;28;20108;-67
2021/12/24 03:02:46;;;;;;;13.98;6.35;;;6.90;99.90;;;;;;5089949;28;20052;-67
2021/12/24 03:05:14;;;;;;;11.13;5.70;;;6.90;99.90;;;;;;5089056;28;20101;-67
2021/12/24 03:07:41;;;;;;;11.18;6.35;;;7.00;99.90;;;;;;5090392;28;20044;-67
2021/12/24 03:10:15;;;;;;;13.82;6.35;;;7.00;99.90;;;;;;5088402;28;20101;-67
2021/12/24 03:12:43;;;;;;;16.05;7.57;;;7.00;99.90;;;;;;5090289;28;20102;-67
2021/12/24 03:15:10;;;;;;;16.42;6.63;;;7.00;99.90;;;;;;5089089;28;20052;-67
2021/12/24 03:17:36;;;;;;;19.33;6.93;;;7.00;99.90;;;;;;5087899;28;20503;-67
2021/12/24 03:20:08;;;;;;;21.50;7.78;;;7.10;99.90;;;;;;5090619;28;20056;-67
2021/12/24 03:25:17;;;;;;;25.90;9.60;;;7.20;99.90;;;;;;5091861;28;20067;-67
2021/12/24 03:27:42;;;;;;;37.40;11.88;;;7.10;99.90;;;;;;5093506;28;20563;-67
2021/12/24 03:30:09;;;;;;;46.90;10.98;;;7.20;99.90;;;;;;5092874;28;20047;-67
2021/12/24 03:32:35;;;;;;;35.13;10.75;;;7.20;99.90;;;;;;5092910;28;20082;-67
2021/12/24 03:35:00;;;;;;;62.05;14.27;;;7.20;99.90;;;;;;5092471;28;20443;-67
2021/12/24 03:37:26;;;;;;;38.45;12.90;;;7.20;99.90;;;;;;5093886;28;20117;-67
2021/12/24 03:39:52;;;;;;;40.88;11.82;;;7.20;99.90;;;;;;5091443;28;20095;-67
2021/12/24 03:42:17;;;;;;;47.00;11.80;;;7.30;99.90;;;;;;5093628;28;20062;-67
2021/12/24 03:44:51;;;;;;;41.13;9.52;;;7.30;99.90;;;;;;5093296;28;20064;-67
2021/12/24 03:47:19;;;;;;;39.65;11.43;;;7.30;99.90;;;;;;5093091;28;20072;-67
2021/12/24 03:49:56;;;;;;;35.35;12.05;;;7.30;99.90;;;;;;5093354;28;20048;-67
2021/12/24 03:52:50;;;;;;;31.23;10.02;;;7.40;99.90;;;;;;5092828;28;20048;-67
2021/12/24 03:55:16;;;;;;;44.03;12.45;;;7.40;99.90;;;;;;5093747;28;20060;-67
2021/12/24 03:57:42;;;;;;;48.92;13.45;;;7.40;99.90;;;;;;5091684;28;20040;-67
2021/12/24 04:00:17;;;;;;;40.10;13.30;;;7.40;99.90;;;;;;5092637;28;20044;-67
2021/12/24 04:02:44;;;;;;;42.28;12.93;;;7.40;99.90;;;;;;5092086;28;20108;-67
2021/12/24 04:05:10;;;;;;;54.92;13.63;;;7.50;99.90;;;;;;5091805;28;20044;-67
2021/12/24 04:07:36;;;;;;;54.25;14.80;;;7.50;99.90;;;;;;5092350;28;20446;-67
2021/12/24 04:10:11;;;;;;;68.68;18.88;;;7.50;99.90;;;;;;5091791;28;20158;-67
2021/12/24 04:12:37;;;;;;;65.03;16.25;;;7.60;99.90;;;;;;5091532;28;20040;-67
2021/12/24 04:15:03;;;;;;;58.40;13.82;;;7.60;99.90;;;;;;5090918;28;20052;-67
2021/12/24 04:17:34;;;;;;;43.58;12.88;;;7.60;99.90;;;;;;5092694;28;20052;-67
2021/12/24 04:25:42;;;;;;;36.50;13.15;;;7.70;99.90;;;;;;5091279;28;20055;-68
2021/12/24 04:28:08;;;;;;;44.38;16.70;;;7.80;99.90;;;;;;5090973;28;20043;-67
2021/12/24 04:30:40;;;;;;;52.33;13.60;;;7.70;99.90;;;;;;5098195;28;20139;-67
2021/12/24 04:33:15;;;;;;;46.83;16.67;;;7.80;99.90;;;;;;5097953;28;20067;-67
2021/12/24 04:35:45;;;;;;;41.17;15.35;;;7.80;99.90;;;;;;5100058;28;20490;-67
2021/12/24 04:51:48;;;;;;;47.63;20.45;;;7.90;99.90;;;;;;5097061;28;20048;-67
2021/12/24 05:05:24;;;;;;;53.35;18.67;;;7.90;99.90;;;;;;5104717;28;20139;-67
2021/12/24 05:10:18;;;;;;;38.83;16.67;;;7.90;99.90;;;;;;5109246;28;20066;-67
2021/12/24 05:12:44;;;;;;;54.00;16.73;;;8.00;99.90;;;;;;5099834;28;20054;-67
2021/12/24 05:15:11;;;;;;;49.72;19.58;;;8.00;99.90;;;;;;5090578;28;20406;-67
2021/12/24 05:22:56;;;;;;;50.78;20.75;;;8.00;99.90;;;;;;5105894;28;20131;-67
2021/12/24 05:25:22;;;;;;;52.53;21.15;;;7.90;99.90;;;;;;5102342;28;20433;-67
2021/12/24 05:27:51;;;;;;;40.35;18.50;;;8.00;99.90;;;;;;5099024;28;20858;-67
2021/12/24 05:30:17;;;;;;;47.00;18.83;;;7.90;99.90;;;;;;5112041;27;20405;-67
2021/12/24 05:32:43;;;;;;;49.20;20.00;;;8.00;99.90;;;;;;5109534;28;20044;-67
2021/12/24 05:35:09;;;;;;;49.60;21.25;;;8.00;99.90;;;;;;5110584;28;20401;-67
2021/12/24 05:37:36;;;;;;;42.35;18.52;;;8.10;99.90;;;;;;5111106;28;20031;-67
2021/12/24 05:40:02;;;;;;;45.63;16.67;;;7.90;99.90;;;;;;5111676;28;20174;-67
2021/12/24 05:42:31;;;;;;;31.98;14.93;;;8.00;99.90;;;;;;5097898;28;20517;-67
2021/12/24 05:45:03;;;;;;;37.75;17.92;;;8.00;99.90;;;;;;5099451;28;20087;-67
2021/12/24 05:47:28;;;;;;;34.30;15.18;;;8.00;99.90;;;;;;5090788;28;20807;-67
2021/12/24 05:49:54;;;;;;;39.13;14.00;;;8.00;99.90;;;;;;5102688;28;20100;-67
2021/12/24 05:52:19;;;;;;;35.67;14.27;;;7.90;99.90;;;;;;5109968;28;20047;-67
2021/12/24 05:54:45;;;;;;;43.88;15.07;;;8.00;99.90;;;;;;5111363;28;20047;-67
2021/12/24 05:57:11;;;;;;;27.30;11.88;;;8.00;99.90;;;;;;5110188;28;20051;-67
2021/12/24 05:59:36;;;;;;;36.20;12.88;;;8.00;99.90;;;;;;5102349;28;20126;-67
2021/12/24 06:02:02;;;;;;;31.80;12.10;;;7.90;99.90;;;;;;5097114;28;20033;-67
2021/12/24 06:04:27;;;;;;;28.13;11.80;;;8.00;99.90;;;;;;5099616;28;20073;-67
2021/12/24 06:06:53;;;;;;;29.60;10.63;;;8.00;99.90;;;;;;5099596;28;20040;-67
2021/12/24 06:09:19;;;;;;;25.85;10.85;;;8.00;99.90;;;;;;5109876;28;20051;-67
2021/12/24 06:11:44;;;;;;;38.53;10.90;;;8.00;99.90;;;;;;5110667;28;20048;-67
2021/12/24 06:14:12;;;;;;;42.13;14.18;;;7.90;99.90;;;;;;5100377;28;20413;-67
2021/12/24 06:16:47;;;;;;;29.88;10.50;;;7.90;99.90;;;;;;5102056;28;20035;-67
2021/12/24 06:19:14;;;;;;;32.08;10.20;;;8.00;99.90;;;;;;5096028;28;20402;-67
2021/12/24 06:21:39;;;;;;;28.23;10.00;;;8.00;99.90;;;;;;5089411;28;20036;-67
2021/12/24 06:24:05;;;;;;;32.00;10.25;;;7.90;99.90;;;;;;5091041;28;20044;-67
2021/12/24 06:26:31;;;;;;;33.08;10.73;;;7.90;99.90;;;;;;5111898;28;20046;-67
2021/12/24 06:28:56;;;;;;;27.45;10.45;;;7.90;99.90;;;;;;5111278;28;20504;-68
2021/12/24 06:31:22;;;;;;;30.05;9.30;;;7.90;99.90;;;;;;5102461;28;20047;-67
2021/12/24 06:33:47;;;;;;;30.73;8.45;;;8.00;99.90;;;;;;5092261;28;20143;-67
2021/12/24 06:36:13;;;;;;;43.90;9.18;;;7.90;99.90;;;;;;5090331;28;20819;-67
2021/12/24 06:38:39;;;;;;;30.00;8.48;;;7.90;99.90;;;;;;5091335;28;20402;-67
2021/12/24 06:41:04;;;;;;;18.65;7.25;;;7.90;99.90;;;;;;5089563;28;20116;-67
2021/12/24 06:43:30;;;;;;;25.48;8.75;;;7.90;99.90;;;;;;5091260;28;20036;-67
2021/12/24 06:45:57;;;;;;;23.33;8.25;;;7.90;99.90;;;;;;5091455;28;20101;-67
2021/12/24 06:48:23;;;;;;;25.25;8.63;;;8.00;99.90;;;;;;5090922;28;20036;-67
2021/12/24 06:50:50;;;;;;;25.58;8.20;;;7.90;99.90;;;;;;5091370;28;20399;-68
2021/12/24 06:53:16;;;;;;;31.63;8.95;;;7.90;99.90;;;;;;5091495;28;20395;-67
2021/12/24 06:55:41;;;;;;;35.05;9.23;;;8.00;99.90;;;;;;5090652;28;20398;-67
2021/12/24 06:58:07;;;;;;;22.27;8.50;;;7.90;99.90;;;;;;5100615;28;20052;-67
2021/12/24 07:00:34;;;;;;;24.70;10.25;;;7.90;99.90;;;;;;5096659;28;20044;-67
2021/12/24 07:02:59;;;;;;;101.88;16.75;;;7.90;99.90;;;;;;5113716;28;20051;-67
2021/12/24 07:05:25;;;;;;;33.63;9.25;;;7.80;99.90;;;;;;5115740;28;20046;-67
2021/12/24 07:07:51;;;;;;;27.35;8.45;;;7.90;99.90;;;;;;5098751;28;20405;-67
2021/12/24 07:10:17;;;;;;;21.13;7.22;;;7.80;99.90;;;;;;5096901;28;20130;-67
2021/12/24 07:12:42;;;;;;;147.88;17.90;;;7.80;99.90;;;;;;5107170;28;20050;-67
2021/12/24 07:15:09;;;;;;;26.20;10.05;;;7.80;99.90;;;;;;5098556;28;20090;-67
2021/12/24 07:17:34;;;;;;;60.97;12.20;;;7.80;99.90;;;;;;5092562;28;20063;-67
2021/12/24 07:20:00;;;;;;;18.15;8.55;;;7.90;99.90;;;;;;5102363;28;20127;-67
2021/12/24 07:22:26;;;;;;;47.95;11.25;;;7.80;99.90;;;;;;5103807;28;20526;-67
2021/12/24 07:24:51;;;;;;;22.27;8.82;;;7.80;99.90;;;;;;5110637;28;20048;-67
2021/12/24 07:27:19;;;;;;;17.20;7.57;;;7.80;99.90;;;;;;5094749;28;20047;-67
2021/12/24 07:29:44;;;;;;;19.67;6.70;;;7.70;99.90;;;;;;5094747;28;20052;-67
2021/12/24 07:32:10;;;;;;;26.38;8.85;;;7.70;99.90;;;;;;5106686;28;20092;-67
2021/12/24 07:34:35;;;;;;;17.75;7.95;;;7.70;99.90;;;;;;5113513;28;20130;-67
2021/12/24 07:37:01;;;;;;;22.25;7.43;;;7.70;99.90;;;;;;5114004;28;20062;-67
2021/12/24 07:39:27;;;;;;;13.57;6.35;;;7.70;99.90;;;;;;5113024;28;20035;-67
2021/12/24 07:41:52;;;;;;;17.33;6.05;;;7.80;99.90;;;;;;5107047;28;20138;-67
2021/12/24 07:44:19;;;;;;;7.43;4.47;;;7.60;99.90;;;;;;5099896;28;20063;-67
2021/12/24 07:46:50;;;;;;;6.20;3.85;;;7.70;99.90;;;;;;5103787;28;20112;-67
2021/12/24 07:49:30;;;;;;;5.68;3.50;;;7.60;99.90;;;;;;5093864;28;20047;-67
2021/12/24 07:52:11;;;;;;;14.05;5.22;;;7.70;99.90;;;;;;5092668;28;20048;-67
2021/12/24 07:54:42;;;;;;;15.27;4.88;;;7.50;99.90;;;;;;5092699;28;20082;-67
2021/12/24 07:57:10;;;;;;;8.27;4.63;;;7.60;99.90;;;;;;5094530;28;20130;-67
2021/12/24 07:59:38;;;;;;;10.25;6.72;;;7.60;99.90;;;;;;5091856;28;20056;-67
2021/12/24 08:02:07;;;;;;;15.20;5.22;;;7.60;99.90;;;;;;5094904;28;20501;-67
2021/12/24 08:04:33;;;;;;;12.35;5.30;;;7.60;99.90;;;;;;5096584;28;20486;-67
2021/12/24 08:07:01;;;;;;;12.95;4.47;;;7.60;99.90;;;;;;5105054;28;20050;-67
2021/12/24 08:09:27;;;;;;;16.70;5.63;;;7.60;99.90;;;;;;5112702;28;20060;-67
2021/12/24 08:11:52;;;;;;;12.75;5.35;;;7.50;99.90;;;;;;5114051;28;20043;-67
2021/12/24 08:14:18;;;;;;;11.35;5.25;;;7.60;99.90;;;;;;5109641;28;20052;-67
2021/12/24 08:16:44;;;;;;;11.93;5.13;;;7.50;99.90;;;;;;5094859;28;20036;-67
2021/12/24 08:19:10;;;;;;;15.00;5.75;;;7.60;99.90;;;;;;5087660;28;20043;-67
2021/12/24 08:21:36;;;;;;;10.90;4.97;;;7.50;99.90;;;;;;5111261;28;20059;-67
2021/12/24 08:24:02;;;;;;;10.88;5.43;;;7.50;99.90;;;;;;5104134;28;20055;-67
2021/12/24 08:26:29;;;;;;;13.40;6.38;;;7.60;99.90;;;;;;5101506;28;20489;-67
2021/12/24 08:28:55;;;;;;;11.98;5.53;;;7.50;99.90;;;;;;5093150;28;20044;-67
2021/12/24 08:31:20;;;;;;;16.33;6.10;;;7.50;99.90;;;;;;5092622;28;20048;-67
2021/12/24 08:33:46;;;;;;;13.77;5.82;;;7.60;99.90;;;;;;5098545;28;20471;-67
2021/12/24 08:36:12;;;;;;;63.88;10.85;;;7.50;99.90;;;;;;5110435;28;20418;-67
2021/12/24 08:38:39;;;;;;;57.30;9.40;;;7.50;99.90;;;;;;5099508;28;20036;-67
2021/12/24 08:41:05;;;;;;;17.90;5.53;;;7.60;99.90;;;;;;5104395;28;20044;-67
2021/12/24 08:43:31;;;;;;;34.70;7.97;;;7.60;99.90;;;;;;5095428;28;20047;-68
2021/12/24 08:45:57;;;;;;;23.02;6.55;;;7.70;99.90;;;;;;5093421;28;20095;-67
2021/12/24 08:48:22;;;;;;;18.55;6.07;;;7.60;99.90;;;;;;5094588;28;20059;-67
2021/12/24 08:50:48;;;;;;;17.98;5.70;;;7.60;99.90;;;;;;5099782;28;20105;-67
2021/12/24 08:53:14;;;;;;;17.25;5.68;;;7.50;99.90;;;;;;5093061;28;20043;-68
2021/12/24 08:55:40;;;;;;;17.40;5.82;;;7.60;99.90;;;;;;5102282;28;20086;-67
2021/12/24 08:58:06;;;;;;;22.67;6.15;;;7.50;99.90;;;;;;5097283;28;20520;-68
2021/12/24 09:00:35;;;;;;;30.48;6.78;;;7.60;99.90;;;;;;5093074;28;20650;-69
2021/12/24 09:03:02;;;;;;;23.05;6.80;;;6.90;99.90;;;;;;5103883;28;20079;-70
2021/12/24 09:05:28;;;;;;;23.83;6.80;;;7.60;99.90;;;;;;5104525;28;20096;-73
2021/12/24 09:07:54;;;;;;;20.38;5.90;;;7.60;99.90;;;;;;5128262;27;20045;-76
2021/12/24 09:10:20;;;;;;;14.25;5.03;;;7.60;99.90;;;;;;5098575;28;20410;-66
2021/12/24 09:12:46;;;;;;;20.38;5.47;;;7.50;99.90;;;;;;5089892;28;20051;-65
2021/12/24 09:15:14;;;;;;;90.70;11.50;;;7.50;99.90;;;;;;5101943;28;20055;-66
2021/12/24 09:17:44;;;;;;;8.73;4.18;;;7.60;99.90;;;;;;5106196;28;20047;-66
2021/12/24 09:20:14;;;;;;;9.48;4.47;;;7.50;99.90;;;;;;5105231;28;20040;-66
2021/12/24 09:22:41;;;;;;;11.98;4.35;;;7.50;99.90;;;;;;5089851;28;20055;-67
2021/12/24 09:25:07;;;;;;;10.10;4.25;;;7.60;99.90;;;;;;5091378;28;20084;-66
2021/12/24 09:27:33;;;;;;;12.90;4.63;;;7.60;99.90;;;;;;5093597;28;20470;-66
2021/12/24 09:29:59;;;;;;;8.75;3.80;;;7.50;99.90;;;;;;5110809;28;20053;-66
2021/12/24 09:32:28;;;;;;;13.35;4.57;;;7.50;99.90;;;;;;5092074;28;20038;-66
2021/12/24 09:34:54;;;;;;;13.45;4.40;;;7.60;99.90;;;;;;5109630;28;20431;-66
2021/12/24 09:37:20;;;;;;;6.68;3.33;;;7.50;99.90;;;;;;5111457;28;20054;-65
2021/12/24 09:39:46;;;;;;;4.40;2.90;;;7.50;99.90;;;;;;5111449;28;20481;-65
2021/12/24 09:42:12;;;;;;;4.30;2.30;;;7.40;99.90;;;;;;5097576;28;20036;-65
2021/12/24 09:44:38;;;;;;;2.42;2.22;;;7.10;99.90;;;;;;5088525;28;20056;-66
2021/12/24 09:47:04;;;;;;;2.83;2.20;;;7.00;99.90;;;;;;5106582;28;20047;-65
2021/12/24 09:49:30;;;;;;;3.13;2.80;;;6.70;99.90;;;;;;5089298;28;20075;-66
2021/12/24 09:51:56;;;;;;;3.28;2.97;;;6.60;99.90;;;;;;5090444;28;20447;-65
2021/12/24 09:54:24;;;;;;;2.92;2.10;;;6.60;99.90;;;;;;5091153;28;20115;-65
2021/12/24 09:56:51;;;;;;;3.83;2.80;;;6.40;99.90;;;;;;5087176;28;20087;-66
2021/12/24 09:59:18;;;;;;;3.15;2.55;;;6.30;99.90;;;;;;5087218;28;20044;-65
2021/12/24 10:01:56;;;;;;;3.35;2.40;;;6.40;99.90;;;;;;5092282;28;20040;-66
2021/12/24 10:04:25;;;;;;;2.95;2.40;;;6.30;99.90;;;;;;5092016;28;20108;-66
2021/12/24 10:06:59;;;;;;;2.50;2.30;;;6.30;99.90;;;;;;5085485;28;20502;-67
2021/12/24 10:09:42;;;;;;;2.20;2.00;;;6.20;99.90;;;;;;5091611;28;20465;-67
2021/12/24 10:12:17;;;;;;;1.75;1.65;;;6.30;99.90;;;;;;5089367;28;20718;-66
2021/12/24 10:14:52;;;;;;;2.67;2.00;;;6.20;99.90;;;;;;5090903;28;20040;-66
2021/12/24 10:17:22;;;;;;;2.35;2.15;;;6.30;99.90;;;;;;5088850;28;20060;-67
2021/12/24 10:19:51;;;;;;;2.33;1.75;;;6.20;99.90;;;;;;5090074;28;20052;-66
2021/12/24 10:22:19;;;;;;;3.47;2.75;;;6.20;99.90;;;;;;5090947;28;20051;-67
2021/12/24 10:25:10;;;;;;;3.05;2.60;;;6.20;99.90;;;;;;5089971;28;20044;-66
2021/12/24 10:27:36;;;;;;;2.50;2.20;;;6.20;99.90;;;;;;5089833;28;20132;-67
2021/12/24 10:30:15;;;;;;;2.83;2.17;;;6.20;99.90;;;;;;5089485;28;20079;-68
2021/12/24 10:32:41;;;;;;;3.92;1.67;;;6.10;99.90;;;;;;5092050;28;20052;-68
2021/12/24 10:35:42;;;;;;;2.40;2.17;;;6.10;99.90;;;;;;5094587;28;20055;-67
2021/12/24 10:38:19;;;;;;;2.13;1.90;;;6.70;99.90;;;;;;5015777;28;20480;-67
2021/12/24 10:40:57;;;;;;;3.70;2.15;;;6.00;99.90;;;;;;5086240;28;20079;-66
2021/12/24 10:43:28;;;;;;;2.45;1.80;;;6.00;99.90;;;;;;5094782;28;20045;-66
2021/12/24 10:46:22;;;;;;;2.17;1.92;;;5.90;99.90;;;;;;5094905;28;20495;-67
2021/12/24 10:49:17;;;;;;;4.18;2.35;;;5.90;99.90;;;;;;5094606;28;20039;-67
2021/12/24 10:52:12;;;;;;;2.60;2.03;;;6.00;99.90;;;;;;5083810;28;20102;-67
2021/12/24 10:54:58;;;;;;;3.33;2.58;;;5.90;99.90;;;;;;5084950;28;20040;-67
2021/12/24 10:57:44;;;;;;;2.15;1.95;;;5.80;99.90;;;;;;5086394;28;20052;-66
2021/12/24 11:00:39;;;;;;;3.75;2.20;;;5.80;99.90;;;;;;5079792;28;20483;-66
2021/12/24 11:03:15;;;;;;;2.17;1.98;;;5.70;99.90;;;;;;5063757;28;20116;-66
2021/12/24 11:05:43;;;;;;;3.22;2.47;;;5.80;99.90;;;;;;5097230;28;20084;-66
2021/12/24 11:08:12;;;;;;;2.50;2.15;;;5.80;99.90;;;;;;5093700;28;20474;-66
2021/12/24 11:10:47;;;;;;;2.53;2.13;;;5.70;99.90;;;;;;5092968;28;20048;-67
2021/12/24 11:13:19;;;;;;;3.90;2.22;;;5.70;99.90;;;;;;5094520;28;20127;-66
2021/12/24 11:15:52;;;;;;;3.17;2.53;;;5.70;99.90;;;;;;5093542;28;20040;-66
2021/12/24 11:18:19;;;;;;;3.88;2.60;;;5.80;99.90;;;;;;5091253;28;20056;-66
2021/12/24 11:20:50;;;;;;;2.15;1.95;;;5.70;99.90;;;;;;5095767;28;20088;-66
2021/12/24 11:23:17;;;;;;;3.00;2.70;;;5.70;99.90;;;;;;5108881;28;20845;-66
2021/12/24 11:25:49;;;;;;;2.40;2.20;;;5.60;99.90;;;;;;5093532;28;20502;-66
2021/12/24 11:28:16;;;;;;;2.17;1.85;;;5.70;99.90;;;;;;5094000;28;20040;-66
2021/12/24 11:30:49;;;;;;;2.47;2.28;;;5.70;99.90;;;;;;5092396;28;20075;-66
2021/12/24 11:33:18;;;;;;;2.13;1.88;;;5.60;99.90;;;;;;5073525;28;20040;-66
2021/12/24 11:35:46;;;;;;;2.47;2.28;;;5.60;99.90;;;;;;5083592;28;20041;-66
2021/12/24 11:38:26;;;;;;;2.30;2.10;;;5.60;99.90;;;;;;5098612;28;20640;-66
2021/12/24 11:40:54;;;;;;;2.78;2.50;;;5.70;99.90;;;;;;5114014;28;20074;-66
2021/12/24 11:43:22;;;;;;;2.42;2.22;;;5.60;99.90;;;;;;5096614;28;20108;-66
2021/12/24 11:45:49;;;;;;;2.83;2.38;;;5.70;99.90;;;;;;5110105;28;20043;-66
2021/12/24 11:48:14;;;;;;;2.47;2.28;;;5.60;99.90;;;;;;5113967;28;20472;-65
2021/12/24 11:50:41;;;;;;;3.97;2.20;;;5.70;99.90;;;;;;5113265;28;20044;-66
2021/12/24 11:53:09;;;;;;;2.90;2.55;;;5.70;99.90;;;;;;5093330;28;20059;-66
2021/12/24 11:55:40;;;;;;;3.25;2.42;;;5.70;99.90;;;;;;5097079;28;20048;-66
2021/12/24 11:58:08;;;;;;;2.85;2.38;;;5.70;99.90;;;;;;5112592;28;20210;-66
2021/12/24 12:00:39;;;;;;;3.78;3.15;;;5.70;99.90;;;;;;5113023;28;20189;-66
2021/12/24 12:03:05;;;;;;;3.80;3.45;;;5.70;99.90;;;;;;5113329;28;20046;-66
2021/12/24 12:05:34;;;;;;;3.83;3.08;;;5.70;99.90;;;;;;5111958;28;20508;-66
2021/12/24 12:08:36;;;;;;;5.95;2.88;;;5.70;99.90;;;;;;5110172;28;20501;-66
2021/12/24 12:11:15;;;;;;;3.33;3.03;;;5.80;99.90;;;;;;5072653;28;20060;-66
2021/12/24 12:13:50;;;;;;;6.53;2.92;;;5.80;99.90;;;;;;5071589;28;20527;-66
2021/12/24 12:16:26;;;;;;;4.20;3.10;;;5.80;99.90;;;;;;5094964;28;20040;-66
2021/12/24 12:19:12;;;;;;;3.55;2.90;;;5.90;99.90;;;;;;5111734;28;20059;-67
2021/12/24 12:21:41;;;;;;;3.47;2.90;;;5.80;99.90;;;;;;5091950;28;20055;-67
2021/12/24 12:26:51;;;;;;;6.55;2.47;;;6.00;99.90;;;;;;5112359;28;20044;-65
2021/12/24 12:29:20;;;;;;;3.22;2.92;;;6.00;99.90;;;;;;5111863;28;20052;-66
2021/12/24 12:31:47;;;;;;;3.40;3.00;;;6.00;99.90;;;;;;5081768;28;20052;-65
2021/12/24 12:34:41;;;;;;;3.17;2.88;;;6.10;99.90;;;;;;5079486;28;20043;-65
2021/12/24 12:37:12;;;;;;;3.08;2.72;;;6.10;99.90;;;;;;5113098;27;20108;-66
2021/12/24 12:39:38;;;;;;;3.40;2.85;;;6.20;99.90;;;;;;5093557;28;20095;-66
2021/12/24 12:42:04;;;;;;;2.55;2.35;;;6.10;99.90;;;;;;5092517;28;20075;-66
2021/12/24 12:44:32;;;;;;;6.90;3.20;;;6.20;99.90;;;;;;5092122;28;20042;-66
2021/12/24 12:47:19;;;;;;;2.80;2.33;;;6.20;99.90;;;;;;5090548;28;20083;-66
2021/12/24 12:49:45;;;;;;;3.20;2.67;;;6.20;99.90;;;;;;5092284;28;20062;-75
2021/12/24 12:52:26;;;;;;;3.10;2.80;;;6.10;99.90;;;;;;5091140;28;20097;-67
2021/12/24 12:54:56;;;;;;;3.08;2.38;;;6.30;99.90;;;;;;5091645;28;20135;-67
2021/12/24 12:57:36;;;;;;;3.45;3.10;;;6.30;99.90;;;;;;5091540;28;20126;-67
2021/12/24 13:00:07;;;;;;;5.93;3.00;;;6.30;99.90;;;;;;5092464;28;20057;-67
2021/12/24 13:02:59;;;;;;;3.47;3.17;;;6.30;99.90;;;;;;5108689;28;20054;-67
2021/12/24 13:05:47;;;;;;;3.13;2.83;;;6.20;99.90;;;;;;5109108;28;20046;-67
2021/12/24 13:08:20;;;;;;;4.18;2.90;;;6.40;99.90;;;;;;5090088;28;20517;-66
2021/12/24 13:11:06;;;;;;;5.18;2.90;;;6.20;99.90;;;;;;5112182;28;20189;-67
2021/12/24 13:13:42;;;;;;;5.85;3.22;;;6.30;99.90;;;;;;5110884;28;20055;-67
2021/12/24 13:16:16;;;;;;;5.13;3.00;;;6.30;99.90;;;;;;5111830;28;20039;-67
2021/12/24 13:18:46;;;;;;;8.43;4.03;;;6.30;99.90;;;;;;5111965;28;20054;-67
2021/12/24 13:23:56;;;;;;;8.82;4.80;;;6.40;99.90;;;;;;5105325;28;20156;-66
2021/12/24 13:26:22;;;;;;;7.75;4.28;;;6.40;99.90;;;;;;5091195;28;20493;-66
2021/12/24 13:28:57;;;;;;;6.47;3.80;;;6.40;99.90;;;;;;5090556;28;20860;-66
2021/12/24 13:31:22;;;;;;;5.43;3.35;;;6.40;99.90;;;;;;5089669;28;20046;-66
2021/12/24 13:33:48;;;;;;;4.68;2.22;;;6.40;99.90;;;;;;5089352;28;20147;-66
2021/12/24 13:36:14;;;;;;;3.15;2.22;;;6.40;99.90;;;;;;5088145;28;20068;-67
2021/12/24 13:38:39;;;;;;;2.45;2.10;;;6.50;99.90;;;;;;5090990;28;20048;-66
2021/12/24 13:41:05;;;;;;;2.28;1.80;;;6.50;99.90;;;;;;5089637;28;20122;-67
2021/12/24 13:43:36;;;;;;;1.35;1.08;;;6.40;99.90;;;;;;5097803;28;20039;-68
2021/12/24 13:46:07;;;;;;;1.70;1.38;;;6.40;99.90;;;;;;5090528;28;20071;-66
2021/12/24 13:48:46;;;;;;;1.73;1.63;;;6.50;99.90;;;;;;5070825;28;20119;-68
2021/12/24 13:56:45;;;;;;;4.13;2.15;;;6.40;99.90;;;;;;5070438;28;20056;-67
2021/12/24 13:59:14;;;;;;;2.17;1.90;;;6.30;99.90;;;;;;5070457;28;20088;-67
2021/12/24 14:01:41;;;;;;;2.05;1.40;;;6.30;99.90;;;;;;5070800;28;20063;-67
2021/12/24 14:04:08;;;;;;;2.40;2.08;;;6.40;99.90;;;;;;5070303;28;20139;-67
2021/12/24 14:06:39;;;;;;;1.52;1.40;;;6.40;99.90;;;;;;5088470;28;20048;-67
2021/12/24 14:09:12;;;;;;;1.35;1.25;;;6.30;99.90;;;;;;5091869;28;20042;-67
2021/12/24 14:11:37;;;;;;;;;;;6.30;99.90;;;;;;5099919;28;20043;-67
2021/12/24 14:14:10;;;;;;;0.85;0.47;;;6.20;99.90;;;;;;5093375;28;19915;-67
2021/12/24 14:16:54;;;;;;;2.95;0.88;;;6.20;99.90;;;;;;5086235;28;20051;-67
2021/12/24 14:20:07;;;;;;;0.98;0.60;;;6.20;99.90;;;;;;5076981;28;20066;-68
2021/12/24 14:22:12;;;;;;;1.98;0.50;;;6.20;99.90;;;;;;5062404;28;20434;-67
2021/12/24 14:25:15;;;;;;;0.95;0.60;;;6.10;99.90;;;;;;5087296;28;20048;-68
2021/12/24 14:27:47;;;;;;;3.78;0.43;;;6.00;99.90;;;;;;5076555;28;20060;-67
2021/12/24 14:30:17;;;;;;;3.03;0.30;;;6.00;99.90;;;;;;5098731;28;20055;-67
2021/12/24 14:32:45;;;;;;;2.40;0.30;;;5.90;99.90;;;;;;5086193;28;20080;-66
2021/12/24 14:35:20;;;;;;;2.08;0.50;;;5.90;99.90;;;;;;5077837;28;20562;-66
2021/12/24 14:38:14;;;;;;;2.50;0.85;;;5.90;99.90;;;;;;5078644;28;20063;-66
2021/12/24 14:40:40;;;;;;;1.00;0.40;;;5.80;99.90;;;;;;5069163;28;20076;-66
2021/12/24 14:43:15;;;;;;;0.77;0.30;;;5.80;99.90;;;;;;5086609;28;20036;-67